createdAt,value
2016-10-30T00:00:06.682Z,71.47
2016-10-30T00:01:06.388Z,71.72
2016-10-30T00:02:06.718Z,72.3
2016-10-30T00:03:06.420Z,72.86
2016-10-30T00:04:06.754Z,72.96
2016-10-30T00:05:06.767Z,72.77
2016-10-30T00:06:06.470Z,71.95
2016-10-30T00:07:06.490Z,72.2
2016-10-30T00:08:06.505Z,72.2
2016-10-30T00:09:06.526Z,72.86
2016-10-30T00:10:06.541Z,72.49
2016-10-30T00:11:06.562Z,72.58
2016-10-30T00:12:06.888Z,72.01
2016-10-30T00:13:06.590Z,71.44
2016-10-30T00:14:06.640Z,72.01
2016-10-30T00:15:06.947Z,71.57
2016-10-30T00:16:06.642Z,71.76
2016-10-30T00:17:06.972Z,71.38
2016-10-30T00:18:06.677Z,70.43
2016-10-30T00:19:06.690Z,70.9
2016-10-30T00:20:07.027Z,71.25
2016-10-30T00:21:06.727Z,71.15
2016-10-30T00:22:07.061Z,71.06
2016-10-30T00:23:06.759Z,71.34
2016-10-30T00:24:06.796Z,71.25
2016-10-30T00:25:06.797Z,70.97
2016-10-30T00:26:06.813Z,70.3
2016-10-30T00:27:06.829Z,70.97
2016-10-30T00:28:06.849Z,71.63
2016-10-30T00:29:06.863Z,72.11
2016-10-30T00:30:06.880Z,71.72
2016-10-30T00:31:07.217Z,72.2
2016-10-30T00:32:06.914Z,71.91
2016-10-30T00:33:06.929Z,71.72
2016-10-30T00:34:06.946Z,71.91
2016-10-30T00:35:06.966Z,72.3
2016-10-30T00:36:06.984Z,72.45
2016-10-30T00:37:06.997Z,72.2
2016-10-30T00:38:07.336Z,72.2
2016-10-30T00:39:07.034Z,72.45
2016-10-30T00:40:07.365Z,72.35
2016-10-30T00:41:07.386Z,72.74
2016-10-30T00:42:07.082Z,72.92
2016-10-30T00:43:07.100Z,72.92
2016-10-30T00:44:07.429Z,72.55
2016-10-30T00:45:07.132Z,72.35
2016-10-30T00:46:07.157Z,72.45
2016-10-30T00:47:07.167Z,72.92
2016-10-30T00:48:07.506Z,73.11
2016-10-30T00:49:07.199Z,72.86
2016-10-30T00:50:07.218Z,72.26
2016-10-30T00:51:07.237Z,72.35
2016-10-30T00:52:07.257Z,72.74
2016-10-30T00:53:07.266Z,72.92
2016-10-30T00:54:07.597Z,73.02
2016-10-30T00:55:07.303Z,72.64
2016-10-30T00:56:07.318Z,72.96
2016-10-30T00:57:07.335Z,71.91
2016-10-30T00:58:07.674Z,72.3
2016-10-30T00:59:07.368Z,71.44
2016-10-30T01:00:07.395Z,72.2
2016-10-30T01:01:07.422Z,72.49
2016-10-30T01:02:07.426Z,71.44
2016-10-30T01:03:07.752Z,72.07
2016-10-30T01:04:07.451Z,71.97
2016-10-30T01:05:07.470Z,71.97
2016-10-30T01:06:07.494Z,72.45
2016-10-30T01:07:07.499Z,72.64
2016-10-30T01:08:07.520Z,72.55
2016-10-30T01:09:07.855Z,72.64
2016-10-30T01:10:07.864Z,73.02
2016-10-30T01:11:07.567Z,72.74
2016-10-30T01:12:07.901Z,72.64
2016-10-30T01:13:07.598Z,72.83
2016-10-30T01:14:07.618Z,72.83
2016-10-30T01:15:07.949Z,72.92
2016-10-30T01:16:07.964Z,72.26
2016-10-30T01:17:07.665Z,71.97
2016-10-30T01:18:07.683Z,72.16
2016-10-30T01:19:07.698Z,72.16
2016-10-30T01:20:08.033Z,72.35
2016-10-30T01:21:08.047Z,72.45
2016-10-30T01:22:08.075Z,73.02
2016-10-30T01:23:07.767Z,72.64
2016-10-30T01:24:07.790Z,72.74
2016-10-30T01:25:07.796Z,72.64
2016-10-30T01:26:07.815Z,72.83
2016-10-30T01:27:07.831Z,72.83
2016-10-30T01:28:08.161Z,72.55
2016-10-30T01:29:08.197Z,72.64
2016-10-30T01:30:08.349Z,72.74
2016-10-30T01:31:08.209Z,72.45
2016-10-30T01:32:07.912Z,72.83
2016-10-30T01:33:07.929Z,72.55
2016-10-30T01:34:33.617Z,73.21
2016-10-30T01:35:08.278Z,73.02
2016-10-30T01:36:08.290Z,73.02
2016-10-30T01:37:07.993Z,73.59
2016-10-30T01:38:08.324Z,73.49
2016-10-30T01:39:08.024Z,72.83
2016-10-30T01:40:08.042Z,72.83
2016-10-30T01:41:08.059Z,72.74
2016-10-30T01:42:08.077Z,72.64
2016-10-30T01:43:08.404Z,72.64
2016-10-30T01:44:08.441Z,72.6
2016-10-30T01:45:08.127Z,72.35
2016-10-30T01:46:08.140Z,72.74
2016-10-30T01:47:08.155Z,72.92
2016-10-30T01:48:08.175Z,73.11
2016-10-30T01:49:08.194Z,73.11
2016-10-30T01:50:08.531Z,72.64
2016-10-30T01:51:08.225Z,72.83
2016-10-30T01:52:08.556Z,72.6
2016-10-30T01:53:08.258Z,72.83
2016-10-30T01:54:08.274Z,72.45
2016-10-30T01:55:08.292Z,72.41
2016-10-30T01:56:08.317Z,73.3
2016-10-30T01:57:08.638Z,72.51
2016-10-30T01:58:08.666Z,73.02
2016-10-30T01:59:08.671Z,72.64
2016-10-30T02:00:08.395Z,72.45
2016-10-30T02:01:08.705Z,72.35
2016-10-30T02:02:08.734Z,72.16
2016-10-30T02:03:08.427Z,72.22
2016-10-30T02:04:08.445Z,72.79
2016-10-30T02:05:08.920Z,72.79
2016-10-30T02:06:08.789Z,72.55
2016-10-30T02:07:08.806Z,72.35
2016-10-30T02:08:08.825Z,72.79
2016-10-30T02:09:08.837Z,72.64
2016-10-30T02:10:08.537Z,72.45
2016-10-30T02:11:08.870Z,72.79
2016-10-30T02:12:08.883Z,72.7
2016-10-30T02:13:08.585Z,72.79
2016-10-30T02:14:08.602Z,73.27
2016-10-30T02:15:08.932Z,72.51
2016-10-30T02:16:08.949Z,72.89
2016-10-30T02:17:08.651Z,73.36
2016-10-30T02:18:08.664Z,73.18
2016-10-30T02:19:09.002Z,73.11
2016-10-30T02:20:08.851Z,73.3
2016-10-30T02:21:09.043Z,74.22
2016-10-30T02:22:09.055Z,73.84
2016-10-30T02:23:08.747Z,74.12
2016-10-30T02:24:08.766Z,74.16
2016-10-30T02:25:09.093Z,74.07
2016-10-30T02:26:09.112Z,73.49
2016-10-30T02:27:08.816Z,74.16
2016-10-30T02:28:08.830Z,73.65
2016-10-30T02:29:09.164Z,73.55
2016-10-30T02:30:09.180Z,73.3
2016-10-30T02:31:08.915Z,73.08
2016-10-30T02:32:08.898Z,73.18
2016-10-30T02:33:08.916Z,73.3
2016-10-30T02:34:08.928Z,73.18
2016-10-30T02:35:09.411Z,72.89
2016-10-30T02:36:08.995Z,72.89
2016-10-30T02:37:08.976Z,72.6
2016-10-30T02:38:08.992Z,72.79
2016-10-30T02:39:09.008Z,72.79
2016-10-30T02:40:09.030Z,73.18
2016-10-30T02:41:09.357Z,72.99
2016-10-30T02:42:09.375Z,72.79
2016-10-30T02:43:09.394Z,72.6
2016-10-30T02:44:09.408Z,72.79
2016-10-30T02:45:09.419Z,73.08
2016-10-30T02:46:09.124Z,73.08
2016-10-30T02:47:09.453Z,72.7
2016-10-30T02:48:09.154Z,72.79
2016-10-30T02:49:09.170Z,73.46
2016-10-30T02:50:09.666Z,72.99
2016-10-30T02:51:09.520Z,72.89
2016-10-30T02:52:09.535Z,72.79
2016-10-30T02:53:09.235Z,72.7
2016-10-30T02:54:09.256Z,72.7
2016-10-30T02:55:09.266Z,72.79
2016-10-30T02:56:09.602Z,73.55
2016-10-30T02:57:09.303Z,73.46
2016-10-30T02:58:09.318Z,74.22
2016-10-30T02:59:09.332Z,73.27
2016-10-30T03:00:09.361Z,73.65
2016-10-30T03:01:09.362Z,73.36
2016-10-30T03:02:09.382Z,73.46
2016-10-30T03:03:09.713Z,73.46
2016-10-30T03:04:09.413Z,72.7
2016-10-30T03:05:09.434Z,72.99
2016-10-30T03:06:09.759Z,73.36
2016-10-30T03:07:09.458Z,73.27
2016-10-30T03:08:09.479Z,73.46
2016-10-30T03:09:09.496Z,73.36
2016-10-30T03:10:09.666Z,73.36
2016-10-30T03:11:09.842Z,73.27
2016-10-30T03:12:09.550Z,72.99
2016-10-30T03:13:09.875Z,73.08
2016-10-30T03:14:09.574Z,73.55
2016-10-30T03:15:09.591Z,73.36
2016-10-30T03:16:09.608Z,74.31
2016-10-30T03:17:09.621Z,74.41
2016-10-30T03:18:09.995Z,74.82
2016-10-30T03:19:09.657Z,74.92
2016-10-30T03:20:09.988Z,75.3
2016-10-30T03:21:09.686Z,75.02
2016-10-30T03:22:10.048Z,75.74
2016-10-30T03:23:09.721Z,75.59
2016-10-30T03:24:10.053Z,75.78
2016-10-30T03:25:10.065Z,75.96
2016-10-30T03:26:10.083Z,76.44
2016-10-30T03:27:10.104Z,76.44
2016-10-30T03:28:10.115Z,76.44
2016-10-30T03:29:09.815Z,76.82
2016-10-30T03:30:10.297Z,77.3
2016-10-30T03:31:09.850Z,77.39
2016-10-30T03:32:09.865Z,78.63
2016-10-30T03:33:09.880Z,78.34
2016-10-30T03:34:09.899Z,79.01
2016-10-30T03:35:10.233Z,78.53
2016-10-30T03:36:10.246Z,78.44
2016-10-30T03:37:09.948Z,78.91
2016-10-30T03:38:09.964Z,78.34
2016-10-30T03:39:10.295Z,78.63
2016-10-30T03:40:10.316Z,77.87
2016-10-30T03:41:10.020Z,77.77
2016-10-30T03:42:10.366Z,78
2016-10-30T03:43:10.359Z,78.72
2016-10-30T03:44:10.063Z,78.82
2016-10-30T03:45:10.546Z,78.44
2016-10-30T03:46:10.411Z,78.44
2016-10-30T03:47:10.108Z,78.53
2016-10-30T03:48:10.126Z,78.77
2016-10-30T03:49:10.151Z,78.82
2016-10-30T03:50:10.474Z,78.44
2016-10-30T03:51:10.497Z,78.91
2016-10-30T03:52:10.193Z,78.91
2016-10-30T03:53:10.210Z,78.82
2016-10-30T03:54:10.540Z,78.29
2016-10-30T03:55:10.558Z,77.81
2016-10-30T03:56:10.576Z,77.91
2016-10-30T03:57:10.590Z,77.62
2016-10-30T03:58:10.291Z,78.38
2016-10-30T03:59:10.307Z,78.19
2016-10-30T04:00:10.475Z,78.29
2016-10-30T04:01:10.341Z,77.62
2016-10-30T04:02:10.361Z,77.53
2016-10-30T04:03:10.690Z,78.1
2016-10-30T04:04:10.401Z,77.91
2016-10-30T04:05:10.721Z,78
2016-10-30T04:06:10.735Z,77.81
2016-10-30T04:07:10.768Z,78.77
2016-10-30T04:08:10.460Z,78.57
2016-10-30T04:09:10.474Z,78.48
2016-10-30T04:10:10.487Z,78.29
2016-10-30T04:11:10.834Z,78.48
2016-10-30T04:12:10.837Z,79.33
2016-10-30T04:13:10.540Z,78.38
2016-10-30T04:14:10.556Z,78.19
2016-10-30T04:15:10.884Z,78.77
2016-10-30T04:16:10.904Z,79.33
2016-10-30T04:17:10.606Z,80.1
2016-10-30T04:18:10.625Z,79.24
2016-10-30T04:19:10.647Z,78.96
2016-10-30T04:20:10.969Z,79.43
2016-10-30T04:21:10.672Z,79.05
2016-10-30T04:22:11.002Z,79.05
2016-10-30T04:23:10.706Z,79.05
2016-10-30T04:24:10.724Z,78.67
2016-10-30T04:25:10.738Z,78.52
2016-10-30T04:26:10.754Z,78.33
2016-10-30T04:27:11.088Z,78.23
2016-10-30T04:28:10.789Z,78.14
2016-10-30T04:29:11.127Z,78.23
2016-10-30T04:30:11.139Z,77.76
2016-10-30T04:31:10.836Z,77.66
2016-10-30T04:32:10.858Z,77.66
2016-10-30T04:33:11.191Z,77.66
2016-10-30T04:34:11.206Z,77.56
2016-10-30T04:35:10.905Z,77.28
2016-10-30T04:36:10.923Z,77
2016-10-30T04:37:11.269Z,76.81
2016-10-30T04:38:10.957Z,76.81
2016-10-30T04:39:11.291Z,76.81
2016-10-30T04:40:10.993Z,76.61
2016-10-30T04:41:11.021Z,76.52
2016-10-30T04:42:11.341Z,76.71
2016-10-30T04:43:11.042Z,76.42
2016-10-30T04:44:11.061Z,76.52
2016-10-30T04:45:11.076Z,76.33
2016-10-30T04:46:11.091Z,76.42
2016-10-30T04:47:11.109Z,76.33
2016-10-30T04:48:11.459Z,76.71
2016-10-30T04:49:11.153Z,76.81
2016-10-30T04:50:11.477Z,76.33
2016-10-30T04:51:11.494Z,76.23
2016-10-30T04:52:11.194Z,76.42
2016-10-30T04:53:11.211Z,76.33
2016-10-30T04:54:11.227Z,76.33
2016-10-30T04:55:11.242Z,76.33
2016-10-30T04:56:11.575Z,75.95
2016-10-30T04:57:11.287Z,76.42
2016-10-30T04:58:11.291Z,76.04
2016-10-30T04:59:11.345Z,75.76
2016-10-30T05:00:11.324Z,76.04
2016-10-30T05:01:11.343Z,76.23
2016-10-30T05:02:11.709Z,76.52
2016-10-30T05:03:11.694Z,76.23
2016-10-30T05:04:11.390Z,75.95
2016-10-30T05:05:11.407Z,76.52
2016-10-30T05:06:11.439Z,76.39
2016-10-30T05:07:11.445Z,76.71
2016-10-30T05:08:11.774Z,76.2
2016-10-30T05:09:11.478Z,76.2
2016-10-30T05:10:11.499Z,76.67
2016-10-30T05:11:11.826Z,76.29
2016-10-30T05:12:11.844Z,77.24
2016-10-30T05:13:11.543Z,77.34
2016-10-30T05:14:11.559Z,76.86
2016-10-30T05:15:11.576Z,76.57
2016-10-30T05:16:11.912Z,76.67
2016-10-30T05:17:11.925Z,76.39
2016-10-30T05:18:11.961Z,76.29
2016-10-30T05:19:11.958Z,76.2
2016-10-30T05:20:11.663Z,76.29
2016-10-30T05:21:11.994Z,76.1
2016-10-30T05:22:11.696Z,76.2
2016-10-30T05:23:12.025Z,76.48
2016-10-30T05:24:11.728Z,76.76
2016-10-30T05:25:11.750Z,77.05
2016-10-30T05:26:12.078Z,76.39
2016-10-30T05:27:11.780Z,76.48
2016-10-30T05:28:11.796Z,76.29
2016-10-30T05:29:11.809Z,76.2
2016-10-30T05:30:12.141Z,75.81
2016-10-30T05:31:11.845Z,75.67
2016-10-30T05:32:12.183Z,75.57
2016-10-30T05:33:11.878Z,75.09
2016-10-30T05:34:11.893Z,75.05
2016-10-30T05:35:12.226Z,76.29
2016-10-30T05:36:12.242Z,76.01
2016-10-30T05:37:11.944Z,76.01
2016-10-30T05:38:12.279Z,76.48
2016-10-30T05:39:12.296Z,76.01
2016-10-30T05:40:11.994Z,76.01
2016-10-30T05:41:12.017Z,76.1
2016-10-30T05:42:12.028Z,76.76
2016-10-30T05:43:12.368Z,76.57
2016-10-30T05:44:12.375Z,76.39
2016-10-30T05:45:12.392Z,76.48
2016-10-30T05:46:12.409Z,75.81
2016-10-30T05:47:12.432Z,75.53
2016-10-30T05:48:12.445Z,75.24
2016-10-30T05:49:12.460Z,75.05
2016-10-30T05:50:12.481Z,74.77
2016-10-30T05:51:12.490Z,74.77
2016-10-30T05:52:12.191Z,74.29
2016-10-30T05:53:12.213Z,75.15
2016-10-30T05:54:12.226Z,75.15
2016-10-30T05:55:12.562Z,75.24
2016-10-30T05:56:12.575Z,75.24
2016-10-30T05:57:12.592Z,75.05
2016-10-30T05:58:12.608Z,75.43
2016-10-30T05:59:12.625Z,74.96
2016-10-30T06:00:12.327Z,75.24
2016-10-30T06:01:12.343Z,74.87
2016-10-30T06:02:12.673Z,74.96
2016-10-30T06:03:12.375Z,75.24
2016-10-30T06:04:12.711Z,75.24
2016-10-30T06:05:12.726Z,75.72
2016-10-30T06:06:12.748Z,75.91
2016-10-30T06:07:12.759Z,75.62
2016-10-30T06:08:12.457Z,75.34
2016-10-30T06:09:12.484Z,74.87
2016-10-30T06:10:12.490Z,74.87
2016-10-30T06:11:12.506Z,74.67
2016-10-30T06:12:12.838Z,74.77
2016-10-30T06:13:12.537Z,74.77
2016-10-30T06:14:12.873Z,74.87
2016-10-30T06:15:12.890Z,74.96
2016-10-30T06:16:12.904Z,74.39
2016-10-30T06:17:12.939Z,74.39
2016-10-30T06:18:12.630Z,74.77
2016-10-30T06:19:12.639Z,74.77
2016-10-30T06:20:12.965Z,74.87
2016-10-30T06:21:12.988Z,74.67
2016-10-30T06:22:13.005Z,74.67
2016-10-30T06:23:12.702Z,74.29
2016-10-30T06:24:12.721Z,73.53
2016-10-30T06:25:13.057Z,73.72
2016-10-30T06:26:12.787Z,74.2
2016-10-30T06:27:13.107Z,74.39
2016-10-30T06:28:12.785Z,75.05
2016-10-30T06:29:12.802Z,75.68
2016-10-30T06:30:13.133Z,75.3
2016-10-30T06:31:12.831Z,74.82
2016-10-30T06:32:13.167Z,74.48
2016-10-30T06:33:12.869Z,74.87
2016-10-30T06:34:13.200Z,74.58
2016-10-30T06:35:12.903Z,75.3
2016-10-30T06:36:12.915Z,75.3
2016-10-30T06:37:12.932Z,75.21
2016-10-30T06:38:13.268Z,75.4
2016-10-30T06:39:13.280Z,75.96
2016-10-30T06:40:13.296Z,75.59
2016-10-30T06:41:13.314Z,75.87
2016-10-30T06:42:13.339Z,76.25
2016-10-30T06:43:13.064Z,76.25
2016-10-30T06:44:13.362Z,75.62
2016-10-30T06:45:13.381Z,75.24
2016-10-30T06:46:13.104Z,75.15
2016-10-30T06:47:13.122Z,74.87
2016-10-30T06:48:13.115Z,75.15
2016-10-30T06:49:13.130Z,75.34
2016-10-30T06:50:13.162Z,74.96
2016-10-30T06:51:13.475Z,75.21
2016-10-30T06:52:13.498Z,75.24
2016-10-30T06:53:13.603Z,75.43
2016-10-30T06:54:13.214Z,75.62
2016-10-30T06:55:13.545Z,75.81
2016-10-30T06:56:13.279Z,76.01
2016-10-30T06:57:13.261Z,75.53
2016-10-30T06:58:13.280Z,75.81
2016-10-30T06:59:13.294Z,76.48
2016-10-30T07:00:13.624Z,76.76
2016-10-30T07:01:13.326Z,76.29
2016-10-30T07:02:13.345Z,76.76
2016-10-30T07:03:13.359Z,76.2
2016-10-30T07:04:13.691Z,75.91
2016-10-30T07:05:13.390Z,76.1
2016-10-30T07:06:13.415Z,76.16
2016-10-30T07:07:13.424Z,76.54
2016-10-30T07:08:13.758Z,76.48
2016-10-30T07:09:13.473Z,76.2
2016-10-30T07:10:13.474Z,76.57
2016-10-30T07:11:13.489Z,76.86
2016-10-30T07:12:13.842Z,76.48
2016-10-30T07:13:13.839Z,76.2
2016-10-30T07:14:13.540Z,76.57
2016-10-30T07:15:13.554Z,76.67
2016-10-30T07:16:13.910Z,76.67
2016-10-30T07:17:13.602Z,76.86
2016-10-30T07:18:13.924Z,76.67
2016-10-30T07:19:13.937Z,76.29
2016-10-30T07:20:13.639Z,76.67
2016-10-30T07:21:13.973Z,76.67
2016-10-30T07:22:13.671Z,76.48
2016-10-30T07:23:13.690Z,76.29
2016-10-30T07:24:14.023Z,76.1
2016-10-30T07:25:13.723Z,75.72
2016-10-30T07:26:13.739Z,76.14
2016-10-30T07:27:13.756Z,76.39
2016-10-30T07:28:13.778Z,76.39
2016-10-30T07:29:13.789Z,76.04
2016-10-30T07:30:14.120Z,75.57
2016-10-30T07:31:13.822Z,75.95
2016-10-30T07:32:14.156Z,76.01
2016-10-30T07:33:14.171Z,75.95
2016-10-30T07:34:14.190Z,76.04
2016-10-30T07:35:13.889Z,74.9
2016-10-30T07:36:14.220Z,75.57
2016-10-30T07:37:13.923Z,75.28
2016-10-30T07:38:14.257Z,74.9
2016-10-30T07:39:14.273Z,74.62
2016-10-30T07:40:13.972Z,74.43
2016-10-30T07:41:13.993Z,74.71
2016-10-30T07:42:14.323Z,75.28
2016-10-30T07:43:14.024Z,75.57
2016-10-30T07:44:14.042Z,75.76
2016-10-30T07:45:14.378Z,75.19
2016-10-30T07:46:14.076Z,74.62
2016-10-30T07:47:14.093Z,74.71
2016-10-30T07:48:14.108Z,74.71
2016-10-30T07:49:14.439Z,74.9
2016-10-30T07:50:14.142Z,74.62
2016-10-30T07:51:14.157Z,74.99
2016-10-30T07:52:14.491Z,74.33
2016-10-30T07:53:14.191Z,74.71
2016-10-30T07:54:14.524Z,75.19
2016-10-30T07:55:14.228Z,75.47
2016-10-30T07:56:14.557Z,75.57
2016-10-30T07:57:14.264Z,75.28
2016-10-30T07:58:14.595Z,74.8
2016-10-30T07:59:14.295Z,74.8
2016-10-30T08:00:14.314Z,74.24
2016-10-30T08:01:14.647Z,74.04
2016-10-30T08:02:14.347Z,75.76
2016-10-30T08:03:14.680Z,74.99
2016-10-30T08:04:14.749Z,76.33
2016-10-30T08:05:14.398Z,75.47
2016-10-30T08:06:14.883Z,74.62
2016-10-30T08:07:14.430Z,74.33
2016-10-30T08:08:14.449Z,73.66
2016-10-30T08:09:14.784Z,73.85
2016-10-30T08:10:14.800Z,74.9
2016-10-30T08:11:14.815Z,74.71
2016-10-30T08:12:14.521Z,75.57
2016-10-30T08:13:14.850Z,75.19
2016-10-30T08:14:14.552Z,75.38
2016-10-30T08:15:14.919Z,74.52
2016-10-30T08:16:14.737Z,75.28
2016-10-30T08:17:14.922Z,74.37
2016-10-30T08:18:14.622Z,74.84
2016-10-30T08:19:14.638Z,75.13
2016-10-30T08:20:14.656Z,74.18
2016-10-30T08:21:14.672Z,74.37
2016-10-30T08:22:14.727Z,74.37
2016-10-30T08:23:14.710Z,74.18
2016-10-30T08:24:15.042Z,74.18
2016-10-30T08:25:15.062Z,74.56
2016-10-30T08:26:15.096Z,73.61
2016-10-30T08:27:14.784Z,74.75
2016-10-30T08:28:14.792Z,73.89
2016-10-30T08:29:14.814Z,74.5
2016-10-30T08:30:15.158Z,74.4
2016-10-30T08:31:14.854Z,74.31
2016-10-30T08:32:14.865Z,73.74
2016-10-30T08:33:15.219Z,73.74
2016-10-30T08:34:15.218Z,73.74
2016-10-30T08:35:15.233Z,73.74
2016-10-30T08:36:15.084Z,73.55
2016-10-30T08:37:15.289Z,73.65
2016-10-30T08:38:15.285Z,73.74
2016-10-30T08:39:15.301Z,73.17
2016-10-30T08:40:15.321Z,72.6
2016-10-30T08:41:15.026Z,72.41
2016-10-30T08:42:15.043Z,72.78
2016-10-30T08:43:15.059Z,73.36
2016-10-30T08:44:15.393Z,74.5
2016-10-30T08:45:15.093Z,73.83
2016-10-30T08:46:15.111Z,73.26
2016-10-30T08:47:15.442Z,74.31
2016-10-30T08:48:15.461Z,73.74
2016-10-30T08:49:15.162Z,72.97
2016-10-30T08:50:15.496Z,73.55
2016-10-30T08:51:15.517Z,73.45
2016-10-30T08:52:15.534Z,72.97
2016-10-30T08:53:15.260Z,72.88
2016-10-30T08:54:15.256Z,72.5
2016-10-30T08:55:15.584Z,72.53
2016-10-30T08:56:15.289Z,72.34
2016-10-30T08:57:15.626Z,72.53
2016-10-30T08:58:15.682Z,72.92
2016-10-30T08:59:15.705Z,72.82
2016-10-30T09:00:15.681Z,72.44
2016-10-30T09:01:15.374Z,72.53
2016-10-30T09:02:15.397Z,72.25
2016-10-30T09:03:15.727Z,72.44
2016-10-30T09:04:15.431Z,71.96
2016-10-30T09:05:15.763Z,72.25
2016-10-30T09:06:15.814Z,72.25
2016-10-30T09:07:15.486Z,71.77
2016-10-30T09:08:15.541Z,71.77
2016-10-30T09:09:15.522Z,71.68
2016-10-30T09:10:15.537Z,71.96
2016-10-30T09:11:15.557Z,71.2
2016-10-30T09:12:15.575Z,71.96
2016-10-30T09:13:15.593Z,72.44
2016-10-30T09:14:15.608Z,72.16
2016-10-30T09:15:15.943Z,72.53
2016-10-30T09:16:15.647Z,71.87
2016-10-30T09:17:15.980Z,72.25
2016-10-30T09:18:16.002Z,71.81
2016-10-30T09:19:16.015Z,72.48
2016-10-30T09:20:16.037Z,73.24
2016-10-30T09:21:15.889Z,73.05
2016-10-30T09:22:16.072Z,73.24
2016-10-30T09:23:15.780Z,71.72
2016-10-30T09:24:16.107Z,70.67
2016-10-30T09:25:16.130Z,71.3
2016-10-30T09:26:16.143Z,71.72
2016-10-30T09:27:15.843Z,71.43
2016-10-30T09:28:16.199Z,70.28
2016-10-30T09:29:15.886Z,70.67
2016-10-30T09:30:16.215Z,70.34
2016-10-30T09:31:16.069Z,71.58
2016-10-30T09:32:15.938Z,70.38
2016-10-30T09:33:15.958Z,70.57
2016-10-30T09:34:15.974Z,70.34
2016-10-30T09:35:15.991Z,69.71
2016-10-30T09:36:16.328Z,70.09
2016-10-30T09:37:16.039Z,70.28
2016-10-30T09:38:30.936Z,71.72
2016-10-30T09:39:16.096Z,71.81
2016-10-30T09:40:16.410Z,70.28
2016-10-30T09:41:16.576Z,70.57
2016-10-30T09:42:16.441Z,71.52
2016-10-30T09:43:16.461Z,72.19
2016-10-30T09:44:16.160Z,71.23
2016-10-30T09:45:16.184Z,70.61
2016-10-30T09:46:16.540Z,70.22
2016-10-30T09:47:16.535Z,70.51
2016-10-30T09:48:16.235Z,70.42
2016-10-30T09:49:16.568Z,69.93
2016-10-30T09:50:16.273Z,69.68
2016-10-30T09:51:16.760Z,69.78
2016-10-30T09:52:16.317Z,69.49
2016-10-30T09:53:16.649Z,68.82
2016-10-30T09:54:16.348Z,68.92
2016-10-30T09:55:16.367Z,67.77
2016-10-30T09:56:16.385Z,68.35
2016-10-30T09:57:16.721Z,68.26
2016-10-30T09:58:16.425Z,67.4
2016-10-30T09:59:16.784Z,67.52
2016-10-30T10:00:16.779Z,67.43
2016-10-30T10:01:16.798Z,66.09
2016-10-30T10:02:16.818Z,67.05
2016-10-30T10:03:16.523Z,66
2016-10-30T10:04:16.577Z,65.52
2016-10-30T10:05:16.874Z,66.28
2016-10-30T10:06:16.898Z,65.8
2016-10-30T10:07:16.827Z,63.93
2016-10-30T10:08:16.935Z,62.78
2016-10-30T10:09:16.989Z,62.68
2016-10-30T10:10:16.656Z,62.87
2016-10-30T10:11:16.675Z,62.65
2016-10-30T10:12:17.011Z,62.18
2016-10-30T10:13:17.034Z,62.37
2016-10-30T10:14:17.050Z,62.37
2016-10-30T10:15:17.072Z,62.18
2016-10-30T10:16:16.778Z,62.18
2016-10-30T10:17:17.113Z,62.65
2016-10-30T10:18:16.815Z,63.03
2016-10-30T10:19:16.836Z,64.09
2016-10-30T10:20:16.860Z,64.5
2016-10-30T10:21:16.880Z,62.4
2016-10-30T10:22:16.900Z,61.82
2016-10-30T10:23:17.231Z,62.33
2016-10-30T10:24:16.938Z,63.1
2016-10-30T10:25:17.274Z,63.39
2016-10-30T10:26:16.979Z,61.47
2016-10-30T10:27:17.317Z,61.41
2016-10-30T10:28:17.019Z,60.64
2016-10-30T10:29:17.039Z,60.45
2016-10-30T10:30:17.065Z,58.54
2016-10-30T10:31:17.541Z,57.2
2016-10-30T10:32:17.100Z,58.54
2016-10-30T10:33:17.122Z,58.47
2016-10-30T10:34:17.147Z,57.61
2016-10-30T10:35:17.163Z,56.56
2016-10-30T10:36:17.183Z,58.09
2016-10-30T10:37:17.536Z,57.51
2016-10-30T10:38:17.227Z,57.51
2016-10-30T10:39:17.248Z,58.31
2016-10-30T10:40:17.270Z,57.92
2016-10-30T10:41:17.288Z,57.06
2016-10-30T10:42:17.311Z,57.45
2016-10-30T10:43:17.646Z,57.28
2016-10-30T10:44:17.353Z,56.61
2016-10-30T10:45:17.380Z,56.32
2016-10-30T10:46:17.399Z,55.4
2016-10-30T10:47:17.731Z,54.15
2016-10-30T10:48:17.758Z,54.53
2016-10-30T10:49:17.461Z,53.09
2016-10-30T10:50:17.484Z,51.65
2016-10-30T10:51:17.504Z,51.28
2016-10-30T10:52:17.527Z,51.28
2016-10-30T10:53:17.552Z,52.23
2016-10-30T10:54:17.890Z,53.38
2016-10-30T10:55:17.629Z,53.19
2016-10-30T10:56:17.933Z,53.41
2016-10-30T10:57:17.638Z,50.92
2016-10-30T10:58:17.660Z,49.19
2016-10-30T10:59:17.684Z,49
2016-10-30T11:00:17.715Z,49.67
2016-10-30T11:01:18.042Z,51.3
2016-10-30T11:02:17.750Z,49.38
2016-10-30T11:03:18.090Z,49.1
2016-10-30T11:04:17.798Z,48.64
2016-10-30T11:05:18.135Z,48.9
2016-10-30T11:06:18.159Z,49.96
2016-10-30T11:07:17.864Z,49.41
2016-10-30T11:08:17.890Z,49.21
2016-10-30T11:09:17.908Z,47.68
2016-10-30T11:10:17.932Z,47.77
2016-10-30T11:11:18.271Z,46.91
2016-10-30T11:12:17.973Z,45.37
2016-10-30T11:13:17.995Z,45.67
2016-10-30T11:14:18.339Z,44.51
2016-10-30T11:15:18.361Z,45.28
2016-10-30T11:16:18.065Z,45.47
2016-10-30T11:17:18.405Z,45
2016-10-30T11:18:18.112Z,45.26
2016-10-30T11:19:18.134Z,46.41
2016-10-30T11:20:18.156Z,46.31
2016-10-30T11:21:18.180Z,44.42
2016-10-30T11:22:18.200Z,44.9
2016-10-30T11:23:18.228Z,45.57
2016-10-30T11:24:18.565Z,44.51
2016-10-30T11:25:18.271Z,45.28
2016-10-30T11:26:18.614Z,44.32
2016-10-30T11:27:18.315Z,44.51
2016-10-30T11:28:18.337Z,44.42
2016-10-30T11:29:18.679Z,45.95
2016-10-30T11:30:18.384Z,46.62
2016-10-30T11:31:18.721Z,47.49
2016-10-30T11:32:18.746Z,47.39
2016-10-30T11:33:18.768Z,47.41
2016-10-30T11:34:18.484Z,47.03
2016-10-30T11:35:18.503Z,45.98
2016-10-30T11:36:18.839Z,46.36
2016-10-30T11:37:18.863Z,46.17
2016-10-30T11:38:18.883Z,45.42
2016-10-30T11:39:18.906Z,45.04
2016-10-30T11:40:18.938Z,42.83
2016-10-30T11:41:18.661Z,42.54
2016-10-30T11:42:18.981Z,42.35
2016-10-30T11:43:18.684Z,42.64
2016-10-30T11:44:18.707Z,43.31
2016-10-30T11:45:19.072Z,42.93
2016-10-30T11:46:18.771Z,43.7
2016-10-30T11:47:18.797Z,43.6
2016-10-30T11:48:19.113Z,43.7
2016-10-30T11:49:18.853Z,41.7
2016-10-30T11:50:18.847Z,44.27
2016-10-30T11:51:18.873Z,46.67
2016-10-30T11:52:19.207Z,46.09
2016-10-30T11:53:18.915Z,42.25
2016-10-30T11:54:18.946Z,42.83
2016-10-30T11:55:18.965Z,44.08
2016-10-30T11:56:19.302Z,43.02
2016-10-30T11:57:19.011Z,44.56
2016-10-30T11:58:19.034Z,46.5
2016-10-30T11:59:19.375Z,43.33
2016-10-30T12:00:19.397Z,44
2016-10-30T12:01:19.105Z,44.77
2016-10-30T12:02:20.157Z,44.29
2016-10-30T12:03:19.153Z,46.31
2016-10-30T12:04:19.173Z,46.89
2016-10-30T12:05:19.537Z,43.52
2016-10-30T12:06:19.613Z,43.14
2016-10-30T12:07:19.561Z,43.07
2016-10-30T12:08:19.641Z,43.26
2016-10-30T12:09:19.294Z,42.97
2016-10-30T12:10:19.321Z,42.97
2016-10-30T12:11:19.341Z,42.87
2016-10-30T12:12:20.089Z,40.56
2016-10-30T12:13:19.707Z,40.18
2016-10-30T12:14:19.730Z,40.47
2016-10-30T12:15:19.776Z,41.33
2016-10-30T12:16:19.461Z,41.82
2016-10-30T12:17:19.487Z,41.62
2016-10-30T12:18:19.517Z,42.18
2016-10-30T12:19:19.851Z,41.82
2016-10-30T12:21:19.900Z,39.79
2016-10-30T12:22:19.603Z,39.99
2016-10-30T12:23:19.628Z,40.08
2016-10-30T12:24:19.668Z,40.85
2016-10-30T12:25:19.994Z,39.51
2016-10-30T12:26:20.021Z,40.56
2016-10-30T12:27:19.744Z,41.33
2016-10-30T12:28:19.750Z,41.53
2016-10-30T12:29:19.773Z,39.7
2016-10-30T12:30:19.795Z,39.99
2016-10-30T12:31:19.825Z,39.89
2016-10-30T12:32:20.536Z,41.82
2016-10-30T12:33:20.378Z,40.28
2016-10-30T12:34:19.897Z,39.51
2016-10-30T12:35:19.920Z,39.61
2016-10-30T12:36:20.259Z,39.12
2016-10-30T12:37:19.975Z,42.3
2016-10-30T12:38:20.312Z,41.05
2016-10-30T12:39:20.391Z,39.99
2016-10-30T12:40:20.039Z,40.2
2016-10-30T12:41:20.081Z,39.91
2016-10-30T12:42:20.403Z,40.39
2016-10-30T12:43:20.113Z,40.68
2016-10-30T12:44:20.455Z,39.04
2016-10-30T12:45:20.487Z,39.24
2016-10-30T12:46:20.185Z,39.72
2016-10-30T12:47:20.525Z,39.36
2016-10-30T12:48:20.552Z,37.62
2016-10-30T12:49:20.283Z,37.24
2016-10-30T12:50:20.603Z,36.27
2016-10-30T12:51:20.312Z,35.02
2016-10-30T12:52:20.648Z,36.16
2016-10-30T12:53:20.669Z,37.39
2016-10-30T12:54:20.377Z,37.99
2016-10-30T12:55:20.720Z,38.47
2016-10-30T12:56:20.743Z,38.18